createdAt,value
2018-09-27T00:01:34.568Z,3.03
2018-09-27T00:04:03.374Z,2.90
2018-09-27T00:06:32.575Z,2.67
2018-09-27T00:09:01.565Z,2.70
2018-09-27T00:11:30.430Z,2.97
2018-09-27T00:13:59.244Z,3.50
2018-09-27T00:16:28.037Z,3.00
2018-09-27T00:18:57.134Z,3.20
2018-09-27T00:21:25.916Z,2.90
2018-09-27T00:23:54.704Z,3.23
2018-09-27T00:26:23.540Z,3.17
2018-09-27T00:28:52.358Z,3.30
2018-09-27T00:31:21.167Z,3.27
2018-09-27T00:33:49.964Z,3.50
2018-09-27T00:36:18.999Z,3.00
2018-09-27T00:38:47.797Z,3.43
2018-09-27T00:41:16.615Z,3.30
2018-09-27T00:43:45.566Z,3.20
2018-09-27T00:46:14.353Z,3.00
2018-09-27T00:48:43.114Z,2.73
2018-09-27T00:51:12.044Z,2.87
2018-09-27T00:53:40.783Z,3.57
2018-09-27T00:56:09.610Z,3.23
2018-09-27T00:58:38.360Z,3.27
2018-09-27T01:01:07.260Z,3.10
2018-09-27T01:03:36.015Z,3.00
2018-09-27T01:06:04.791Z,3.30
2018-09-27T01:08:33.556Z,3.20
2018-09-27T01:11:02.454Z,2.93
2018-09-27T01:13:31.263Z,2.97
2018-09-27T01:16:00.140Z,2.77
2018-09-27T01:18:28.947Z,2.70
2018-09-27T01:20:57.727Z,2.73
2018-09-27T01:23:26.531Z,3.17
2018-09-27T01:25:56.411Z,3.23
2018-09-27T01:28:25.200Z,3.10
2018-09-27T01:30:54.307Z,3.07
2018-09-27T01:33:23.255Z,3.00
2018-09-27T01:35:52.036Z,3.17
2018-09-27T01:38:20.896Z,2.73
2018-09-27T01:40:49.822Z,3.23
2018-09-27T01:43:18.598Z,3.00
2018-09-27T01:45:47.395Z,3.03
2018-09-27T01:48:16.231Z,3.03
2018-09-27T01:50:45.032Z,3.07
2018-09-27T01:53:13.808Z,2.90
2018-09-27T01:55:42.635Z,2.73
2018-09-27T01:58:11.410Z,2.90
2018-09-27T02:00:40.374Z,2.80
2018-09-27T02:03:09.220Z,2.80
2018-09-27T02:05:38.022Z,2.97
2018-09-27T02:08:06.811Z,3.00
2018-09-27T02:10:35.597Z,3.03
2018-09-27T02:13:04.376Z,3.30
2018-09-27T02:15:33.159Z,3.20
2018-09-27T02:18:02.098Z,3.30
2018-09-27T02:20:30.840Z,3.00
2018-09-27T02:22:59.648Z,3.13
2018-09-27T02:25:28.486Z,3.07
2018-09-27T02:27:57.284Z,2.90
2018-09-27T02:30:26.097Z,2.90
2018-09-27T02:32:54.879Z,2.90
2018-09-27T02:35:24.386Z,3.07
2018-09-27T02:37:53.184Z,3.23
2018-09-27T02:40:21.984Z,3.33
2018-09-27T02:42:50.791Z,4.93
2018-09-27T02:45:19.580Z,5.67
2018-09-27T02:47:48.563Z,5.63
2018-09-27T02:50:17.332Z,4.83
2018-09-27T02:52:46.105Z,4.80
2018-09-27T02:55:15.040Z,3.63
2018-09-27T02:57:43.804Z,3.63
2018-09-27T03:00:12.644Z,3.17
2018-09-27T03:02:41.465Z,3.00
2018-09-27T03:05:10.247Z,3.07
2018-09-27T03:07:39.079Z,3.20
2018-09-27T03:10:07.885Z,3.43
2018-09-27T03:12:36.687Z,3.87
2018-09-27T03:15:05.648Z,3.27
2018-09-27T03:17:34.409Z,3.40
2018-09-27T03:20:03.278Z,3.77
2018-09-27T03:22:32.100Z,3.47
2018-09-27T03:25:00.915Z,4.20
2018-09-27T03:27:29.692Z,3.30
2018-09-27T03:29:58.554Z,3.83
2018-09-27T03:35:01.600Z,3.20
2018-09-27T03:37:30.380Z,3.47
2018-09-27T03:39:59.277Z,3.50
2018-09-27T03:42:28.021Z,3.77
2018-09-27T03:44:56.793Z,3.83
2018-09-27T03:47:25.616Z,3.90
2018-09-27T03:49:54.711Z,3.53
2018-09-27T03:52:23.480Z,3.40
2018-09-27T03:54:52.251Z,4.00
2018-09-27T03:57:21.071Z,3.47
2018-09-27T03:59:50.383Z,3.20
2018-09-27T04:02:19.190Z,3.87
2018-09-27T04:04:47.995Z,3.40
2018-09-27T04:07:16.829Z,3.53
2018-09-27T04:09:45.632Z,3.30
2018-09-27T04:12:14.401Z,3.13
2018-09-27T04:14:43.226Z,3.50
2018-09-27T04:17:12.019Z,3.90
2018-09-27T04:19:40.860Z,3.70
2018-09-27T04:22:09.693Z,3.50
2018-09-27T04:24:38.479Z,3.40
2018-09-27T04:27:07.260Z,3.67
2018-09-27T04:29:36.123Z,3.10
2018-09-27T04:32:04.928Z,3.80
2018-09-27T04:34:33.737Z,3.60
2018-09-27T04:37:02.995Z,3.60
2018-09-27T04:39:31.800Z,3.03
2018-09-27T04:42:00.592Z,3.97
2018-09-27T04:44:29.375Z,5.37
2018-09-27T04:46:58.188Z,5.70
2018-09-27T04:49:26.973Z,5.07
2018-09-27T04:51:56.168Z,5.23
2018-09-27T04:54:24.882Z,4.70
2018-09-27T04:56:53.703Z,4.10
2018-09-27T04:59:22.543Z,4.37
2018-09-27T05:01:51.383Z,3.73
2018-09-27T05:04:21.313Z,3.70
2018-09-27T05:06:50.124Z,4.10
2018-09-27T05:09:19.090Z,3.93
2018-09-27T05:11:47.922Z,4.83
2018-09-27T05:14:16.808Z,5.90
2018-09-27T05:16:46.135Z,14.00
2018-09-27T05:19:14.962Z,10.60
2018-09-27T05:21:43.828Z,5.17
2018-09-27T05:24:12.623Z,4.37
2018-09-27T05:26:41.444Z,5.07
2018-09-27T05:29:10.255Z,5.90
2018-09-27T05:31:39.092Z,5.90
2018-09-27T05:34:07.884Z,5.40
2018-09-27T05:36:36.715Z,5.30
2018-09-27T05:39:06.773Z,5.97
2018-09-27T05:41:35.728Z,5.73
2018-09-27T05:44:04.636Z,4.43
2018-09-27T05:46:33.634Z,4.67
2018-09-27T05:49:02.539Z,5.20
2018-09-27T05:51:31.397Z,4.97
2018-09-27T05:54:00.275Z,5.17
2018-09-27T05:56:29.193Z,5.00
2018-09-27T05:58:58.058Z,5.60
2018-09-27T06:01:26.912Z,5.10
2018-09-27T06:03:56.699Z,5.00
2018-09-27T06:06:25.573Z,5.37
2018-09-27T06:08:54.427Z,6.63
2018-09-27T06:11:23.305Z,6.20
2018-09-27T06:13:52.153Z,6.33
2018-09-27T06:16:21.190Z,5.40
2018-09-27T06:18:50.074Z,5.27
2018-09-27T06:21:19.004Z,4.50
2018-09-27T06:23:47.865Z,4.37
2018-09-27T06:26:16.734Z,4.47
2018-09-27T06:28:45.580Z,4.53
2018-09-27T06:31:14.540Z,4.97
2018-09-27T06:33:43.419Z,5.83
2018-09-27T06:36:12.219Z,5.57
2018-09-27T06:38:41.279Z,5.97
2018-09-27T06:41:10.154Z,5.63
2018-09-27T06:43:39.108Z,5.10
2018-09-27T06:46:07.935Z,4.70
2018-09-27T06:48:36.809Z,4.77
2018-09-27T06:51:05.639Z,5.13
2018-09-27T06:53:34.615Z,5.23
2018-09-27T06:56:03.485Z,5.00
2018-09-27T06:58:32.266Z,6.00
2018-09-27T07:01:01.244Z,7.13
2018-09-27T07:03:29.995Z,6.23
2018-09-27T07:05:58.852Z,4.97
2018-09-27T07:08:27.900Z,5.43
2018-09-27T07:10:56.731Z,5.93
2018-09-27T07:13:25.587Z,5.83
2018-09-27T07:15:54.415Z,5.07
2018-09-27T07:18:24.032Z,5.57
2018-09-27T07:20:52.884Z,5.10
2018-09-27T07:23:21.783Z,5.10
2018-09-27T07:25:50.648Z,5.63
2018-09-27T07:28:19.464Z,5.17
2018-09-27T07:30:48.363Z,4.93
2018-09-27T07:33:17.347Z,5.00
2018-09-27T07:35:46.182Z,4.83
2018-09-27T07:38:19.340Z,4.63
2018-09-27T07:40:48.779Z,4.27
2018-09-27T07:43:17.659Z,4.67
2018-09-27T07:45:46.660Z,5.03
2018-09-27T07:48:15.571Z,4.80
2018-09-27T07:50:44.686Z,4.77
2018-09-27T07:53:13.550Z,4.10
2018-09-27T07:55:42.424Z,5.07
2018-09-27T07:58:11.452Z,5.00
2018-09-27T08:00:53.935Z,5.13
2018-09-27T08:03:22.799Z,5.20
2018-09-27T08:05:51.674Z,5.13
2018-09-27T08:08:20.569Z,4.60
2018-09-27T08:10:49.411Z,5.00
2018-09-27T08:13:18.278Z,4.60
2018-09-27T08:15:47.154Z,5.33
2018-09-27T08:18:15.986Z,5.00
2018-09-27T08:20:45.029Z,4.50
2018-09-27T08:23:13.723Z,4.77
2018-09-27T08:25:42.591Z,4.93
2018-09-27T08:28:11.514Z,4.80
2018-09-27T08:30:41.816Z,5.70
2018-09-27T08:33:10.786Z,5.37
2018-09-27T08:35:39.788Z,5.70
2018-09-27T08:38:08.822Z,4.43
2018-09-27T08:40:40.469Z,4.77
2018-09-27T08:43:09.708Z,4.90
2018-09-27T08:45:38.683Z,4.83
2018-09-27T08:48:07.454Z,4.73
2018-09-27T08:50:36.334Z,6.93
2018-09-27T08:53:05.191Z,6.67
2018-09-27T08:55:34.162Z,7.90
2018-09-27T08:58:02.971Z,7.23
2018-09-27T09:00:31.867Z,6.63
2018-09-27T09:03:00.759Z,7.43
2018-09-27T09:05:29.629Z,7.70
2018-09-27T09:07:58.789Z,8.30
2018-09-27T09:10:27.693Z,6.53
2018-09-27T09:12:56.524Z,8.23
2018-09-27T09:15:25.475Z,8.20
2018-09-27T09:17:54.285Z,9.03
2018-09-27T09:20:44.584Z,7.97
2018-09-27T09:23:13.754Z,9.80
2018-09-27T09:25:42.675Z,9.40
2018-09-27T09:28:11.545Z,9.10
2018-09-27T09:30:40.395Z,9.93
2018-09-27T09:33:09.439Z,10.00
2018-09-27T09:35:38.415Z,9.97
2018-09-27T09:38:07.343Z,8.83
2018-09-27T09:40:37.064Z,8.57
2018-09-27T09:43:06.063Z,8.97
2018-09-27T09:45:34.911Z,8.97
2018-09-27T09:48:04.414Z,8.37
2018-09-27T09:50:33.308Z,7.63
2018-09-27T09:53:02.153Z,6.53
2018-09-27T09:55:31.371Z,5.60
2018-09-27T09:58:01.148Z,5.67
2018-09-27T10:00:29.972Z,4.13
2018-09-27T10:02:58.823Z,3.70
2018-09-27T10:05:27.671Z,3.70
2018-09-27T10:07:56.724Z,4.43
2018-09-27T10:10:25.569Z,4.33
2018-09-27T10:12:54.451Z,3.90
2018-09-27T10:15:23.400Z,3.10
2018-09-27T10:17:52.267Z,3.03
2018-09-27T10:20:21.123Z,3.53
2018-09-27T10:22:50.021Z,3.40
2018-09-27T10:25:18.867Z,5.00
2018-09-27T10:27:47.975Z,4.13
2018-09-27T10:30:16.958Z,3.60
2018-09-27T10:32:45.813Z,4.37
2018-09-27T10:35:14.820Z,4.37
2018-09-27T10:37:43.654Z,4.30
2018-09-27T10:40:12.475Z,4.40
2018-09-27T10:42:41.349Z,4.63
2018-09-27T10:45:10.224Z,4.43
2018-09-27T10:47:39.032Z,4.30
2018-09-27T10:50:09.970Z,4.13
2018-09-27T10:52:38.784Z,3.70
2018-09-27T10:55:07.606Z,3.60
2018-09-27T10:57:36.440Z,4.30
2018-09-27T11:00:05.296Z,3.60
2018-09-27T11:02:34.129Z,2.93
2018-09-27T11:05:03.047Z,3.30
2018-09-27T11:07:31.881Z,3.00
2018-09-27T11:10:00.675Z,2.70
2018-09-27T11:12:29.547Z,2.67
2018-09-27T11:14:58.593Z,2.67
2018-09-27T11:17:27.415Z,3.13
2018-09-27T11:19:59.952Z,2.77
2018-09-27T11:22:28.736Z,2.70
2018-09-27T11:24:57.524Z,2.83
2018-09-27T11:27:26.462Z,2.87
2018-09-27T11:30:00.866Z,2.53
2018-09-27T11:32:31.184Z,2.50
2018-09-27T11:35:00.301Z,2.63
2018-09-27T11:37:29.227Z,2.73
2018-09-27T11:39:58.067Z,2.43
2018-09-27T11:42:26.982Z,2.10
2018-09-27T11:44:55.744Z,2.63
2018-09-27T11:47:24.560Z,2.03
2018-09-27T11:49:53.479Z,2.70
2018-09-27T11:52:22.168Z,2.30
2018-09-27T11:54:51.034Z,2.50
2018-09-27T11:57:20.092Z,2.17
2018-09-27T11:59:48.956Z,2.37
2018-09-27T12:02:17.774Z,2.30
2018-09-27T12:04:46.612Z,2.30
2018-09-27T12:07:15.424Z,2.23
2018-09-27T12:09:44.224Z,2.47
2018-09-27T12:12:13.141Z,2.20
2018-09-27T12:14:42.090Z,2.07
2018-09-27T12:17:10.868Z,2.40
2018-09-27T12:19:39.831Z,2.07
2018-09-27T12:22:08.859Z,2.13
2018-09-27T12:24:37.658Z,2.37
2018-09-27T12:27:06.439Z,2.33
2018-09-27T12:29:35.268Z,2.13
2018-09-27T12:32:04.113Z,2.30
2018-09-27T12:34:33.244Z,2.13
2018-09-27T12:37:02.047Z,2.07
2018-09-27T12:39:30.944Z,2.37
2018-09-27T12:41:59.839Z,2.60
2018-09-27T12:44:28.563Z,2.93
2018-09-27T12:46:57.497Z,2.27
2018-09-27T12:49:26.180Z,2.20
2018-09-27T12:51:55.499Z,2.37
2018-09-27T12:54:24.237Z,2.33
2018-09-27T12:56:53.120Z,2.00
2018-09-27T12:59:21.957Z,2.13
2018-09-27T13:01:50.929Z,2.03
2018-09-27T13:04:19.748Z,2.07
2018-09-27T13:06:48.524Z,1.90
2018-09-27T13:09:17.514Z,2.00
2018-09-27T13:11:46.213Z,2.00
2018-09-27T13:14:15.011Z,1.87
2018-09-27T13:16:43.839Z,2.00
2018-09-27T13:19:12.765Z,2.10
2018-09-27T13:21:41.663Z,1.60
2018-09-27T13:24:10.444Z,2.20
2018-09-27T13:26:39.293Z,1.87
2018-09-27T13:29:08.056Z,2.17
2018-09-27T13:31:36.891Z,1.70
2018-09-27T13:34:05.921Z,1.90
2018-09-27T13:36:34.708Z,1.85
2018-09-27T13:39:04.496Z,1.65
2018-09-27T13:41:33.271Z,1.98
2018-09-27T13:44:02.100Z,1.92
2018-09-27T13:46:31.036Z,1.90
2018-09-27T13:48:59.856Z,2.10
2018-09-27T13:51:28.635Z,2.00
2018-09-27T13:53:57.457Z,2.20
2018-09-27T13:56:26.299Z,2.02
2018-09-27T13:58:55.149Z,1.85
2018-09-27T14:01:23.928Z,1.62
2018-09-27T14:03:52.750Z,1.90
2018-09-27T14:06:21.681Z,1.80
2018-09-27T14:08:50.508Z,1.70
2018-09-27T14:11:19.376Z,1.80
2018-09-27T14:13:48.188Z,1.67
2018-09-27T14:16:16.991Z,1.30
2018-09-27T14:18:45.888Z,1.87
2018-09-27T14:21:14.909Z,1.70
2018-09-27T14:23:43.740Z,1.50
2018-09-27T14:26:12.644Z,1.80
2018-09-27T14:28:41.586Z,1.67
2018-09-27T14:31:10.527Z,1.62
2018-09-27T14:33:39.440Z,1.60
2018-09-27T14:36:08.295Z,1.72
2018-09-27T14:38:37.119Z,1.42
2018-09-27T14:41:06.058Z,1.60
2018-09-27T14:43:34.783Z,1.50
2018-09-27T14:46:03.740Z,1.27
2018-09-27T14:48:32.544Z,1.50
2018-09-27T14:51:01.408Z,1.67
2018-09-27T14:53:32.423Z,1.57
2018-09-27T14:56:01.341Z,1.65
2018-09-27T14:58:30.191Z,1.70
2018-09-27T15:00:59.091Z,1.65
2018-09-27T15:03:28.012Z,2.10
2018-09-27T15:05:56.928Z,1.60
2018-09-27T15:08:26.493Z,1.52
2018-09-27T15:10:55.446Z,2.02
2018-09-27T15:13:24.290Z,1.60
2018-09-27T15:15:53.253Z,1.70
2018-09-27T15:18:22.594Z,1.80
2018-09-27T15:20:51.621Z,1.72
2018-09-27T15:23:20.671Z,2.10
2018-09-27T15:25:49.523Z,1.70
2018-09-27T15:28:18.598Z,1.60
2018-09-27T15:30:48.276Z,1.67
2018-09-27T15:33:16.277Z,1.70
2018-09-27T15:35:45.878Z,1.67
2018-09-27T15:38:15.007Z,1.62
2018-09-27T15:40:43.828Z,1.50
2018-09-27T15:43:12.753Z,1.75
2018-09-27T15:45:41.665Z,1.80
2018-09-27T15:48:10.463Z,1.90
2018-09-27T15:50:39.286Z,1.82
2018-09-27T15:53:08.233Z,1.52
2018-09-27T15:55:37.448Z,1.52
2018-09-27T15:58:06.287Z,1.67
2018-09-27T16:00:35.092Z,1.80
2018-09-27T16:03:03.966Z,2.15
2018-09-27T16:05:32.937Z,2.30
2018-09-27T16:08:01.931Z,2.00
2018-09-27T16:10:31.071Z,1.80
2018-09-27T16:12:59.949Z,1.70
2018-09-27T16:15:28.843Z,1.70
2018-09-27T16:17:57.884Z,1.93
2018-09-27T16:20:26.775Z,1.80
2018-09-27T16:22:55.609Z,1.80
2018-09-27T16:25:24.621Z,2.00
2018-09-27T16:27:53.640Z,2.10
2018-09-27T16:30:30.069Z,2.07
2018-09-27T16:33:01.630Z,2.57
2018-09-27T16:35:44.943Z,1.90
2018-09-27T16:38:14.929Z,2.30
2018-09-27T16:40:43.955Z,1.67
2018-09-27T16:43:12.951Z,1.87
2018-09-27T16:45:42.213Z,2.10
2018-09-27T16:48:11.488Z,2.03
2018-09-27T16:50:40.489Z,2.00
2018-09-27T16:53:09.325Z,1.73
2018-09-27T16:55:38.391Z,1.50
2018-09-27T16:58:07.368Z,1.47
2018-09-27T17:00:36.524Z,2.07
2018-09-27T17:03:05.664Z,1.87
2018-09-27T17:05:34.737Z,1.70
2018-09-27T17:08:03.630Z,1.80
2018-09-27T17:10:32.547Z,2.37
2018-09-27T17:13:01.475Z,2.03
2018-09-27T17:15:30.493Z,2.50
2018-09-27T17:17:59.452Z,2.50
2018-09-27T17:20:28.337Z,2.00
2018-09-27T17:22:57.297Z,2.30
2018-09-27T17:25:26.256Z,2.37
2018-09-27T17:27:55.248Z,2.63
2018-09-27T17:30:24.141Z,4.10
2018-09-27T17:32:52.957Z,4.80
2018-09-27T17:35:21.800Z,8.17
2018-09-27T17:37:50.651Z,13.23
2018-09-27T17:40:19.612Z,9.70
2018-09-27T17:42:48.401Z,9.67
2018-09-27T17:45:17.445Z,9.80
2018-09-27T17:47:46.425Z,10.70
2018-09-27T17:50:15.257Z,8.70
2018-09-27T17:52:48.210Z,26.37
2018-09-27T17:55:20.160Z,16.80
2018-09-27T17:57:50.123Z,9.83
2018-09-27T18:00:19.594Z,6.83
2018-09-27T18:02:49.489Z,8.93
2018-09-27T18:05:19.559Z,6.70
2018-09-27T18:07:48.078Z,3.80
2018-09-27T18:10:17.067Z,3.20
2018-09-27T18:12:47.076Z,3.07
2018-09-27T18:15:15.884Z,2.70
2018-09-27T18:17:44.813Z,2.60
2018-09-27T18:20:13.760Z,2.47
2018-09-27T18:22:42.718Z,2.37
2018-09-27T18:25:11.563Z,2.47
2018-09-27T18:27:40.380Z,2.13
2018-09-27T18:30:09.402Z,2.23
2018-09-27T18:32:38.290Z,2.90
2018-09-27T18:35:07.084Z,3.57
2018-09-27T18:37:35.937Z,4.60
2018-09-27T18:40:05.416Z,3.20
2018-09-27T18:42:34.188Z,2.90
2018-09-27T18:45:03.360Z,3.10
2018-09-27T18:47:32.248Z,3.10
2018-09-27T18:50:01.083Z,3.20
2018-09-27T18:52:30.668Z,3.33
2018-09-27T18:54:59.796Z,4.67
2018-09-27T18:57:28.752Z,7.77
2018-09-27T18:59:58.814Z,7.93
2018-09-27T19:02:27.744Z,5.40
2018-09-27T19:05:01.301Z,6.27
2018-09-27T19:07:31.901Z,4.13
2018-09-27T19:10:03.447Z,5.60
2018-09-27T19:12:45.067Z,6.57
2018-09-27T19:15:33.310Z,4.53
2018-09-27T19:18:21.658Z,4.37
2018-09-27T19:20:51.916Z,3.80
2018-09-27T19:23:21.405Z,3.10
2018-09-27T19:25:51.404Z,3.40
2018-09-27T19:34:27.609Z,4.50
2018-09-27T19:37:07.233Z,4.97
2018-09-27T19:39:39.416Z,4.97
2018-09-27T19:42:10.671Z,5.13
2018-09-27T19:44:39.999Z,5.13
2018-09-27T19:47:10.658Z,5.97
2018-09-27T19:49:40.123Z,5.17
2018-09-27T19:52:09.934Z,5.30
2018-09-27T19:54:40.173Z,5.83
2018-09-27T19:57:09.195Z,5.87
2018-09-27T19:59:38.506Z,5.93
2018-09-27T20:02:08.199Z,5.40
2018-09-27T20:04:37.444Z,4.70
2018-09-27T20:07:06.714Z,5.00
2018-09-27T20:09:35.752Z,5.00
2018-09-27T20:12:06.397Z,4.33
2018-09-27T20:14:35.671Z,4.83
2018-09-27T20:17:09.551Z,4.53
2018-09-27T20:19:38.499Z,5.40
2018-09-27T20:22:09.722Z,5.10
2018-09-27T20:24:39.201Z,5.67
2018-09-27T20:27:09.752Z,4.33
2018-09-27T20:29:40.509Z,3.80
2018-09-27T20:32:09.607Z,3.93
2018-09-27T20:34:38.725Z,3.70
2018-09-27T20:37:08.525Z,3.93
2018-09-27T20:39:37.493Z,3.83
2018-09-27T20:42:06.413Z,3.73
2018-09-27T20:44:35.219Z,3.50
2018-09-27T20:47:04.081Z,3.50
2018-09-27T20:49:33.600Z,3.43
2018-09-27T20:52:02.549Z,3.80
2018-09-27T20:54:31.619Z,3.40
2018-09-27T20:57:00.521Z,3.10
2018-09-27T20:59:30.272Z,3.70
2018-09-27T21:01:59.572Z,3.00
2018-09-27T21:04:29.753Z,3.93
2018-09-27T21:06:58.795Z,3.70
2018-09-27T21:09:27.689Z,4.60
2018-09-27T21:11:58.966Z,4.23
2018-09-27T21:14:30.187Z,4.67
2018-09-27T21:17:00.460Z,3.80
2018-09-27T21:19:29.843Z,3.60
2018-09-27T21:21:58.705Z,4.00
2018-09-27T21:24:30.231Z,4.07
2018-09-27T21:27:00.683Z,4.07
2018-09-27T21:29:30.784Z,3.50
2018-09-27T21:32:01.650Z,4.03
2018-09-27T21:34:30.715Z,3.93
2018-09-27T21:36:59.530Z,4.20
2018-09-27T21:39:28.730Z,3.80
2018-09-27T21:41:57.660Z,3.60
2018-09-27T21:44:26.652Z,3.40
2018-09-27T21:46:55.530Z,3.57
2018-09-27T21:49:24.401Z,3.30
2018-09-27T21:51:53.334Z,3.77
2018-09-27T21:54:22.196Z,3.40
2018-09-27T21:56:51.029Z,3.67
2018-09-27T21:59:19.960Z,3.57
2018-09-27T22:01:48.908Z,3.67
2018-09-27T22:04:17.868Z,3.40
2018-09-27T22:06:48.098Z,3.30
2018-09-27T22:09:16.989Z,3.33
2018-09-27T22:11:45.932Z,3.40
2018-09-27T22:14:14.828Z,2.80
2018-09-27T22:16:43.807Z,3.67
2018-09-27T22:19:12.619Z,3.70
2018-09-27T22:21:41.464Z,2.90
2018-09-27T22:24:10.593Z,3.40
2018-09-27T22:26:40.784Z,3.40
2018-09-27T22:29:10.627Z,3.40
2018-09-27T22:31:39.487Z,2.90
2018-09-27T22:34:08.296Z,3.00
2018-09-27T22:36:37.168Z,3.10
2018-09-27T22:39:09.503Z,2.90
2018-09-27T22:41:38.337Z,2.70
2018-09-27T22:44:07.312Z,2.70
2018-09-27T22:46:36.229Z,2.73
2018-09-27T22:49:09.982Z,3.00
2018-09-27T22:51:38.794Z,2.77
2018-09-27T22:54:07.842Z,2.93
2018-09-27T22:56:36.677Z,3.20
2018-09-27T22:59:06.616Z,2.80
2018-09-27T23:01:35.493Z,2.40
2018-09-27T23:04:04.447Z,2.77
2018-09-27T23:06:33.317Z,2.83
2018-09-27T23:09:02.233Z,2.87
2018-09-27T23:11:32.631Z,2.80
2018-09-27T23:14:02.904Z,2.70
2018-09-27T23:16:31.756Z,2.90
2018-09-27T23:19:00.634Z,2.70
2018-09-27T23:21:30.667Z,3.00
2018-09-27T23:24:05.433Z,3.10
2018-09-27T23:26:34.220Z,3.00
2018-09-27T23:29:03.102Z,4.00
2018-09-27T23:31:31.882Z,2.93
2018-09-27T23:34:00.708Z,2.80
2018-09-27T23:36:33.139Z,2.80
2018-09-27T23:39:01.951Z,2.83
2018-09-27T23:41:30.755Z,3.30
2018-09-27T23:43:59.594Z,3.57
2018-09-27T23:46:28.401Z,3.73
2018-09-27T23:48:58.391Z,3.00
2018-09-27T23:51:27.545Z,2.90
2018-09-27T23:53:56.428Z,2.80
2018-09-27T23:56:25.240Z,3.00
2018-09-27T23:58:54.086Z,2.80
